sensor_id;sensor_type;location;lat;lon;timestamp;pressure;altitude;pressure_sealevel;temperature;humidity
37648;BME280;23490;53.656;10.076;2022-08-23T00:01:26;55796.97;;;-145.95;67.90
37648;BME280;23490;53.656;10.076;2022-08-23T00:03:53;55817.34;;;-145.95;68.00
37648;BME280;23490;53.656;10.076;2022-08-23T00:06:20;55850.00;;;-145.95;68.18
37648;BME280;23490;53.656;10.076;2022-08-23T00:08:47;55866.31;;;-145.95;67.80
37648;BME280;23490;53.656;10.076;2022-08-23T00:11:33;55858.16;;;-145.95;68.17
37648;BME280;23490;53.656;10.076;2022-08-23T00:14:04;55805.13;;;-145.95;68.56
37648;BME280;23490;53.656;10.076;2022-08-23T00:16:30;55821.44;;;-145.95;68.53
37648;BME280;23490;53.656;10.076;2022-08-23T00:18:55;55833.66;;;-145.95;68.02
37648;BME280;23490;53.656;10.076;2022-08-23T00:21:21;55809.19;;;-145.95;68.68
37648;BME280;23490;53.656;10.076;2022-08-23T00:23:47;55825.53;;;-145.95;68.77
37648;BME280;23490;53.656;10.076;2022-08-23T00:26:12;55845.91;;;-145.95;68.59
37648;BME280;23490;53.656;10.076;2022-08-23T00:28:38;55854.06;;;-145.95;68.63
37648;BME280;23490;53.656;10.076;2022-08-23T00:31:05;55805.13;;;-145.95;68.99
37648;BME280;23490;53.656;10.076;2022-08-23T00:33:31;55831.63;;;-145.95;68.68
37648;BME280;23490;53.656;10.076;2022-08-23T00:35:56;55823.47;;;-145.95;68.87
37648;BME280;23490;53.656;10.076;2022-08-23T00:38:21;55799.00;;;-145.95;69.43
37648;BME280;23490;53.656;10.076;2022-08-23T00:40:50;55827.56;;;-145.95;69.50
37648;BME280;23490;53.656;10.076;2022-08-23T00:43:19;55837.75;;;-145.95;68.91
37648;BME280;23490;53.656;10.076;2022-08-23T00:46:22;55813.28;;;-145.95;69.23
37648;BME280;23490;53.656;10.076;2022-08-23T00:49:24;55788.81;;;-145.95;69.18
37648;BME280;23490;53.656;10.076;2022-08-23T00:52:23;55776.56;;;-145.95;69.56
37648;BME280;23490;53.656;10.076;2022-08-23T00:54:51;55821.44;;;-145.95;70.02
37648;BME280;23490;53.656;10.076;2022-08-23T00:57:18;55801.03;;;-145.95;70.32
37648;BME280;23490;53.656;10.076;2022-08-23T00:59:44;55803.09;;;-145.95;70.36
37648;BME280;23490;53.656;10.076;2022-08-23T01:02:10;55780.66;;;-145.95;70.74
37648;BME280;23490;53.656;10.076;2022-08-23T01:04:40;55780.66;;;-145.95;70.45
37648;BME280;23490;53.656;10.076;2022-08-23T01:07:10;55792.88;;;-145.95;70.17
37648;BME280;23490;53.656;10.076;2022-08-23T01:09:38;55813.28;;;-145.95;70.62
37648;BME280;23490;53.656;10.076;2022-08-23T01:12:14;55825.53;;;-145.95;69.85
37648;BME280;23490;53.656;10.076;2022-08-23T01:14:58;55821.44;;;-145.95;70.19
37648;BME280;23490;53.656;10.076;2022-08-23T01:17:29;55809.19;;;-145.95;70.34
37648;BME280;23490;53.656;10.076;2022-08-23T01:20:00;55772.50;;;-145.95;71.11
37648;BME280;23490;53.656;10.076;2022-08-23T01:22:32;55788.81;;;-145.95;70.89
37648;BME280;23490;53.656;10.076;2022-08-23T01:25:05;55829.59;;;-145.95;71.57
37648;BME280;23490;53.656;10.076;2022-08-23T01:27:32;55784.72;;;-145.95;70.93
37648;BME280;23490;53.656;10.076;2022-08-23T01:29:57;55780.66;;;-145.95;71.92
37648;BME280;23490;53.656;10.076;2022-08-23T01:32:23;55801.03;;;-145.95;71.45
37648;BME280;23490;53.656;10.076;2022-08-23T01:34:50;55788.81;;;-145.95;71.10
37648;BME280;23490;53.656;10.076;2022-08-23T01:37:17;55784.72;;;-145.95;71.06
37648;BME280;23490;53.656;10.076;2022-08-23T01:39:43;55805.13;;;-145.95;71.40
37648;BME280;23490;53.656;10.076;2022-08-23T01:42:09;55833.66;;;-145.95;71.86
37648;BME280;23490;53.656;10.076;2022-08-23T01:44:35;55829.59;;;-145.95;71.84
37648;BME280;23490;53.656;10.076;2022-08-23T01:47:01;55850.00;;;-145.95;71.37
37648;BME280;23490;53.656;10.076;2022-08-23T01:49:26;55833.66;;;-145.95;71.61
37648;BME280;23490;53.656;10.076;2022-08-23T01:51:51;55829.59;;;-145.95;72.27
37648;BME280;23490;53.656;10.076;2022-08-23T01:54:17;55833.66;;;-145.95;72.32
37648;BME280;23490;53.656;10.076;2022-08-23T01:56:43;55813.28;;;-145.95;71.84
37648;BME280;23490;53.656;10.076;2022-08-23T01:59:10;55825.53;;;-145.95;72.40
37648;BME280;23490;53.656;10.076;2022-08-23T02:01:35;55792.88;;;-145.95;72.82
37648;BME280;23490;53.656;10.076;2022-08-23T02:04:01;55796.97;;;-145.95;71.96
37648;BME280;23490;53.656;10.076;2022-08-23T02:06:26;55788.81;;;-145.95;72.65
37648;BME280;23490;53.656;10.076;2022-08-23T02:08:52;55831.63;;;-145.95;71.74
37648;BME280;23490;53.656;10.076;2022-08-23T02:11:36;55811.25;;;-145.95;71.95
37648;BME280;23490;53.656;10.076;2022-08-23T02:14:08;55847.94;;;-145.95;72.08
37648;BME280;23490;53.656;10.076;2022-08-23T02:16:40;55801.03;;;-145.95;72.19
37648;BME280;23490;53.656;10.076;2022-08-23T02:19:09;55817.34;;;-145.95;72.04
37648;BME280;23490;53.656;10.076;2022-08-23T02:21:36;55801.03;;;-145.95;72.35
37648;BME280;23490;53.656;10.076;2022-08-23T02:24:08;55801.03;;;-145.95;71.93
37648;BME280;23490;53.656;10.076;2022-08-23T02:26:35;55801.03;;;-145.95;72.34
37648;BME280;23490;53.656;10.076;2022-08-23T02:29:00;55796.97;;;-145.95;72.46
37648;BME280;23490;53.656;10.076;2022-08-23T02:31:26;55809.19;;;-145.95;72.05
37648;BME280;23490;53.656;10.076;2022-08-23T02:33:51;55837.75;;;-145.95;72.05
37648;BME280;23490;53.656;10.076;2022-08-23T02:36:16;55815.31;;;-145.95;71.72
37648;BME280;23490;53.656;10.076;2022-08-23T02:38:42;55821.44;;;-145.95;72.58
37648;BME280;23490;53.656;10.076;2022-08-23T02:41:07;55790.84;;;-145.95;72.25
37648;BME280;23490;53.656;10.076;2022-08-23T02:43:33;55805.13;;;-145.95;72.15
37648;BME280;23490;53.656;10.076;2022-08-23T02:45:59;55807.16;;;-145.95;72.43
37648;BME280;23490;53.656;10.076;2022-08-23T02:48:24;55788.81;;;-145.95;72.07
37648;BME280;23490;53.656;10.076;2022-08-23T02:50:50;55799.00;;;-145.95;72.27
37648;BME280;23490;53.656;10.076;2022-08-23T02:53:16;55825.53;;;-145.95;72.06
37648;BME280;23490;53.656;10.076;2022-08-23T02:55:47;55831.63;;;-145.95;72.15
37648;BME280;23490;53.656;10.076;2022-08-23T02:58:12;55784.72;;;-145.95;72.27
37648;BME280;23490;53.656;10.076;2022-08-23T03:00:38;55825.53;;;-145.95;72.57
37648;BME280;23490;53.656;10.076;2022-08-23T03:03:04;55796.97;;;-145.95;72.90
37648;BME280;23490;53.656;10.076;2022-08-23T03:05:30;55829.59;;;-145.95;72.30
37648;BME280;23490;53.656;10.076;2022-08-23T03:07:56;55850.00;;;-145.95;71.77
37648;BME280;23490;53.656;10.076;2022-08-23T03:10:22;55829.59;;;-145.95;71.67
37648;BME280;23490;53.656;10.076;2022-08-23T03:12:47;55807.16;;;-145.95;72.44
37648;BME280;23490;53.656;10.076;2022-08-23T03:15:13;55817.34;;;-145.95;72.64
37648;BME280;23490;53.656;10.076;2022-08-23T03:17:39;55845.91;;;-145.95;72.07
37648;BME280;23490;53.656;10.076;2022-08-23T03:20:05;55805.13;;;-145.95;71.59
37648;BME280;23490;53.656;10.076;2022-08-23T03:22:31;55764.34;;;-145.95;72.33
37648;BME280;23490;53.656;10.076;2022-08-23T03:24:56;55813.28;;;-145.95;71.98
37648;BME280;23490;53.656;10.076;2022-08-23T03:27:22;55821.44;;;-145.95;72.80
37648;BME280;23490;53.656;10.076;2022-08-23T03:29:47;55784.72;;;-145.95;71.85
37648;BME280;23490;53.656;10.076;2022-08-23T03:32:13;55819.41;;;-145.95;71.19
37648;BME280;23490;53.656;10.076;2022-08-23T03:34:39;55774.53;;;-145.95;71.31
37648;BME280;23490;53.656;10.076;2022-08-23T03:37:04;55817.34;;;-145.95;71.30
37648;BME280;23490;53.656;10.076;2022-08-23T03:39:29;55796.97;;;-145.95;72.69
37648;BME280;23490;53.656;10.076;2022-08-23T03:41:55;55774.53;;;-145.95;72.09
37648;BME280;23490;53.656;10.076;2022-08-23T03:44:20;55829.59;;;-145.95;72.26
37648;BME280;23490;53.656;10.076;2022-08-23T03:46:46;55845.91;;;-145.95;71.86
37648;BME280;23490;53.656;10.076;2022-08-23T03:49:11;55827.56;;;-145.95;71.62
37648;BME280;23490;53.656;10.076;2022-08-23T03:51:36;55841.84;;;-145.95;72.12
37648;BME280;23490;53.656;10.076;2022-08-23T03:54:02;55799.00;;;-145.95;72.08
37648;BME280;23490;53.656;10.076;2022-08-23T03:56:36;55825.53;;;-145.95;72.32
37648;BME280;23490;53.656;10.076;2022-08-23T03:59:06;55837.75;;;-145.95;71.31
37648;BME280;23490;53.656;10.076;2022-08-23T04:01:31;55817.34;;;-145.95;71.21
37648;BME280;23490;53.656;10.076;2022-08-23T04:03:57;55829.59;;;-145.95;72.24
37648;BME280;23490;53.656;10.076;2022-08-23T04:06:30;55823.47;;;-145.95;70.93
37648;BME280;23490;53.656;10.076;2022-08-23T04:08:57;55799.00;;;-145.95;70.36
37648;BME280;23490;53.656;10.076;2022-08-23T04:11:23;55833.66;;;-145.95;70.07
37648;BME280;23490;53.656;10.076;2022-08-23T04:13:50;55825.53;;;-145.95;71.28
37648;BME280;23490;53.656;10.076;2022-08-23T04:16:16;55784.72;;;-145.95;70.88
37648;BME280;23490;53.656;10.076;2022-08-23T04:18:43;55796.97;;;-145.95;70.51
37648;BME280;23490;53.656;10.076;2022-08-23T04:21:17;55790.84;;;-145.95;70.73
37648;BME280;23490;53.656;10.076;2022-08-23T04:23:43;55809.19;;;-145.95;71.08
37648;BME280;23490;53.656;10.076;2022-08-23T04:26:09;55815.31;;;-145.95;70.90
37648;BME280;23490;53.656;10.076;2022-08-23T04:28:35;55784.72;;;-145.95;70.97
37648;BME280;23490;53.656;10.076;2022-08-23T04:31:01;55817.34;;;-145.95;70.96
37648;BME280;23490;53.656;10.076;2022-08-23T04:33:27;55821.44;;;-145.95;70.34
37648;BME280;23490;53.656;10.076;2022-08-23T04:35:53;55788.81;;;-145.95;70.87
37648;BME280;23490;53.656;10.076;2022-08-23T04:38:18;55817.34;;;-145.95;70.31
37648;BME280;23490;53.656;10.076;2022-08-23T04:40:43;55833.66;;;-145.95;70.44
37648;BME280;23490;53.656;10.076;2022-08-23T04:43:28;55786.78;;;-145.95;70.22
37648;BME280;23490;53.656;10.076;2022-08-23T04:45:54;55833.66;;;-145.95;69.46
37648;BME280;23490;53.656;10.076;2022-08-23T04:48:21;55788.81;;;-145.95;71.17
37648;BME280;23490;53.656;10.076;2022-08-23T04:50:47;55772.50;;;-145.95;69.68
37648;BME280;23490;53.656;10.076;2022-08-23T04:53:13;55817.34;;;-145.95;69.27
37648;BME280;23490;53.656;10.076;2022-08-23T04:55:38;55825.53;;;-145.95;69.37
37648;BME280;23490;53.656;10.076;2022-08-23T04:58:04;55801.03;;;-145.95;68.87
37648;BME280;23490;53.656;10.076;2022-08-23T05:00:30;55850.00;;;-145.95;69.12
37648;BME280;23490;53.656;10.076;2022-08-23T05:02:56;55845.91;;;-145.95;69.41
37648;BME280;23490;53.656;10.076;2022-08-23T05:05:21;55841.84;;;-145.95;70.11
37648;BME280;23490;53.656;10.076;2022-08-23T05:07:46;55831.63;;;-145.95;69.03
37648;BME280;23490;53.656;10.076;2022-08-23T05:10:14;55825.53;;;-145.95;69.55
37648;BME280;23490;53.656;10.076;2022-08-23T05:12:40;55803.09;;;-145.95;69.16
37648;BME280;23490;53.656;10.076;2022-08-23T05:15:06;55817.34;;;-145.95;69.27
37648;BME280;23490;53.656;10.076;2022-08-23T05:17:33;55799.00;;;-145.95;69.07
37648;BME280;23490;53.656;10.076;2022-08-23T05:19:59;55817.34;;;-145.95;69.36
37648;BME280;23490;53.656;10.076;2022-08-23T05:22:25;55805.13;;;-145.95;69.16
37648;BME280;23490;53.656;10.076;2022-08-23T05:24:50;55827.56;;;-145.95;68.43
37648;BME280;23490;53.656;10.076;2022-08-23T05:27:16;55847.94;;;-145.95;69.09
37648;BME280;23490;53.656;10.076;2022-08-23T05:29:41;55790.84;;;-145.95;68.03
37648;BME280;23490;53.656;10.076;2022-08-23T05:32:07;55799.00;;;-145.95;67.77
37648;BME280;23490;53.656;10.076;2022-08-23T05:34:32;55809.19;;;-145.95;68.43
37648;BME280;23490;53.656;10.076;2022-08-23T05:36:57;55788.81;;;-145.95;66.75
37648;BME280;23490;53.656;10.076;2022-08-23T05:39:23;55852.03;;;-145.95;66.50
37648;BME280;23490;53.656;10.076;2022-08-23T05:41:48;55817.34;;;-145.95;66.52
37648;BME280;23490;53.656;10.076;2022-08-23T05:44:13;55829.59;;;-145.95;66.08
37648;BME280;23490;53.656;10.076;2022-08-23T05:46:39;55803.09;;;-145.95;65.95
37648;BME280;23490;53.656;10.076;2022-08-23T05:49:06;55852.03;;;-145.95;65.41
37648;BME280;23490;53.656;10.076;2022-08-23T05:51:33;55788.81;;;-145.95;65.02
37648;BME280;23490;53.656;10.076;2022-08-23T05:54:02;55862.22;;;-145.95;64.51
37648;BME280;23490;53.656;10.076;2022-08-23T05:56:34;55850.00;;;-145.95;64.79
37648;BME280;23490;53.656;10.076;2022-08-23T05:59:02;55837.75;;;-145.95;64.01
37648;BME280;23490;53.656;10.076;2022-08-23T06:01:31;55821.44;;;-145.95;63.96
37648;BME280;23490;53.656;10.076;2022-08-23T06:03:58;55829.59;;;-145.95;63.84
37648;BME280;23490;53.656;10.076;2022-08-23T06:06:24;55817.34;;;-145.95;63.52
37648;BME280;23490;53.656;10.076;2022-08-23T06:08:49;55811.25;;;-145.95;63.71
37648;BME280;23490;53.656;10.076;2022-08-23T06:11:18;55760.25;;;-145.95;63.86
37648;BME280;23490;53.656;10.076;2022-08-23T06:13:46;55807.16;;;-145.95;63.20
37648;BME280;23490;53.656;10.076;2022-08-23T06:16:14;55870.38;;;-145.95;62.40
37648;BME280;23490;53.656;10.076;2022-08-23T06:18:40;55817.34;;;-145.95;61.72
37648;BME280;23490;53.656;10.076;2022-08-23T06:21:08;55854.06;;;-145.95;61.65
37648;BME280;23490;53.656;10.076;2022-08-23T06:23:36;55825.53;;;-145.95;61.00
37648;BME280;23490;53.656;10.076;2022-08-23T06:26:10;55819.41;;;-145.95;60.57
37648;BME280;23490;53.656;10.076;2022-08-23T06:28:35;55829.59;;;-145.95;60.18
37648;BME280;23490;53.656;10.076;2022-08-23T06:31:01;55829.59;;;-145.95;60.51
37648;BME280;23490;53.656;10.076;2022-08-23T06:33:26;55847.94;;;-145.95;61.02
37648;BME280;23490;53.656;10.076;2022-08-23T06:36:08;55821.44;;;-145.95;60.47
37648;BME280;23490;53.656;10.076;2022-08-23T06:38:34;55817.34;;;-145.95;60.36
37648;BME280;23490;53.656;10.076;2022-08-23T06:41:04;55827.56;;;-145.95;60.76
37648;BME280;23490;53.656;10.076;2022-08-23T06:43:31;55821.44;;;-145.95;60.86
37648;BME280;23490;53.656;10.076;2022-08-23T06:46:19;55817.34;;;-145.95;60.33
37648;BME280;23490;53.656;10.076;2022-08-23T06:48:45;55821.44;;;-145.95;60.18
37648;BME280;23490;53.656;10.076;2022-08-23T06:51:18;55809.19;;;-145.95;60.89
37648;BME280;23490;53.656;10.076;2022-08-23T06:53:45;55815.31;;;-145.95;60.15
37648;BME280;23490;53.656;10.076;2022-08-23T06:56:11;55831.63;;;-145.95;60.75
37648;BME280;23490;53.656;10.076;2022-08-23T06:58:36;55850.00;;;-145.95;60.63
37648;BME280;23490;53.656;10.076;2022-08-23T07:02:05;55817.34;;;-145.95;60.01
37648;BME280;23490;53.656;10.076;2022-08-23T07:04:31;55876.50;;;-145.95;60.12
37648;BME280;23490;53.656;10.076;2022-08-23T07:06:58;55845.91;;;-145.95;58.38
37648;BME280;23490;53.656;10.076;2022-08-23T07:09:26;55860.19;;;-145.95;58.39
37648;BME280;23490;53.656;10.076;2022-08-23T07:11:51;55809.19;;;-145.95;57.98
37648;BME280;23490;53.656;10.076;2022-08-23T07:14:19;55858.16;;;-145.95;58.21
37648;BME280;23490;53.656;10.076;2022-08-23T07:16:48;55854.06;;;-145.95;57.51
37648;BME280;23490;53.656;10.076;2022-08-23T07:19:15;55817.34;;;-145.95;57.56
37648;BME280;23490;53.656;10.076;2022-08-23T07:21:41;55813.28;;;-145.95;56.00
37648;BME280;23490;53.656;10.076;2022-08-23T07:24:07;55862.22;;;-145.95;56.17
37648;BME280;23490;53.656;10.076;2022-08-23T07:26:33;55837.75;;;-145.95;55.15
37648;BME280;23490;53.656;10.076;2022-08-23T07:28:59;55850.00;;;-145.95;55.03
37648;BME280;23490;53.656;10.076;2022-08-23T07:31:31;55854.06;;;-145.95;54.02
37648;BME280;23490;53.656;10.076;2022-08-23T07:33:58;55862.22;;;-145.95;53.50
37648;BME280;23490;53.656;10.076;2022-08-23T07:36:25;55829.59;;;-145.95;53.90
37648;BME280;23490;53.656;10.076;2022-08-23T07:38:52;55847.94;;;-145.95;53.38
37648;BME280;23490;53.656;10.076;2022-08-23T07:41:18;55841.84;;;-145.95;53.47
37648;BME280;23490;53.656;10.076;2022-08-23T07:43:45;55882.63;;;-145.95;53.22
37648;BME280;23490;53.656;10.076;2022-08-23T07:46:11;55858.16;;;-145.95;52.94
37648;BME280;23490;53.656;10.076;2022-08-23T07:48:37;55833.66;;;-145.95;51.77
37648;BME280;23490;53.656;10.076;2022-08-23T07:51:05;55866.31;;;-145.95;51.19
37648;BME280;23490;53.656;10.076;2022-08-23T07:53:31;55862.22;;;-145.95;50.63
37648;BME280;23490;53.656;10.076;2022-08-23T07:55:57;55870.38;;;-145.95;50.75
37648;BME280;23490;53.656;10.076;2022-08-23T07:58:23;55845.91;;;-145.95;48.06
37648;BME280;23490;53.656;10.076;2022-08-23T08:00:50;55856.09;;;-145.95;47.13
37648;BME280;23490;53.656;10.076;2022-08-23T08:03:17;55866.31;;;-145.95;47.46
37648;BME280;23490;53.656;10.076;2022-08-23T08:05:43;55903.00;;;-145.95;46.34
37648;BME280;23490;53.656;10.076;2022-08-23T08:08:09;55825.53;;;-145.95;46.65
37648;BME280;23490;53.656;10.076;2022-08-23T08:10:36;55845.91;;;-145.95;46.71
37648;BME280;23490;53.656;10.076;2022-08-23T08:13:03;55854.06;;;-145.95;47.15
37648;BME280;23490;53.656;10.076;2022-08-23T08:15:29;55868.34;;;-145.95;46.49
37648;BME280;23490;53.656;10.076;2022-08-23T08:17:55;55866.31;;;-145.95;45.95
37648;BME280;23490;53.656;10.076;2022-08-23T08:20:21;55845.91;;;-145.95;46.51
37648;BME280;23490;53.656;10.076;2022-08-23T08:22:47;55847.94;;;-145.95;46.92
37648;BME280;23490;53.656;10.076;2022-08-23T08:25:13;55878.53;;;-145.95;47.12
37648;BME280;23490;53.656;10.076;2022-08-23T08:27:39;55866.31;;;-145.95;47.21
37648;BME280;23490;53.656;10.076;2022-08-23T08:30:06;55850.00;;;-145.95;47.48
37648;BME280;23490;53.656;10.076;2022-08-23T08:32:32;55872.41;;;-145.95;47.60
37648;BME280;23490;53.656;10.076;2022-08-23T08:34:57;55862.22;;;-145.95;46.77
37648;BME280;23490;53.656;10.076;2022-08-23T08:37:22;55870.38;;;-145.95;45.85
37648;BME280;23490;53.656;10.076;2022-08-23T08:39:48;55890.78;;;-145.95;46.37
37648;BME280;23490;53.656;10.076;2022-08-23T08:45:14;55874.47;;;-145.95;45.49
37648;BME280;23490;53.656;10.076;2022-08-23T08:48:02;55866.31;;;-145.95;45.29
37648;BME280;23490;53.656;10.076;2022-08-23T08:50:59;55874.47;;;-145.95;45.16
37648;BME280;23490;53.656;10.076;2022-08-23T08:55:57;55870.38;;;-145.95;44.08
37648;BME280;23490;53.656;10.076;2022-08-23T08:58:40;55909.13;;;-145.95;43.19
37648;BME280;23490;53.656;10.076;2022-08-23T09:01:07;55903.00;;;-145.95;44.08
37648;BME280;23490;53.656;10.076;2022-08-23T09:03:34;55878.53;;;-145.95;45.21
37648;BME280;23490;53.656;10.076;2022-08-23T09:06:08;55864.25;;;-145.95;43.64
37648;BME280;23490;53.656;10.076;2022-08-23T09:08:53;55872.41;;;-145.95;42.84
37648;BME280;23490;53.656;10.076;2022-08-23T09:16:52;55876.50;;;-145.95;43.36
37648;BME280;23490;53.656;10.076;2022-08-23T09:19:20;55907.09;;;-145.95;43.43
37648;BME280;23490;53.656;10.076;2022-08-23T09:22:01;55890.78;;;-145.95;42.55
37648;BME280;23490;53.656;10.076;2022-08-23T09:24:29;55894.84;;;-145.95;43.43
37648;BME280;23490;53.656;10.076;2022-08-23T09:26:54;55886.69;;;-145.95;43.22
37648;BME280;23490;53.656;10.076;2022-08-23T09:29:26;55870.38;;;-145.95;42.06
37648;BME280;23490;53.656;10.076;2022-08-23T09:31:53;55929.50;;;-145.95;42.06
37648;BME280;23490;53.656;10.076;2022-08-23T09:36:45;55917.28;;;-145.95;42.83
37648;BME280;23490;53.656;10.076;2022-08-23T09:39:31;55894.84;;;-145.95;40.73
37648;BME280;23490;53.656;10.076;2022-08-23T09:41:59;55935.63;;;-145.95;40.27
37648;BME280;23490;53.656;10.076;2022-08-23T09:47:10;55925.44;;;-145.95;40.63
37648;BME280;23490;53.656;10.076;2022-08-23T09:49:36;55947.88;;;-145.95;40.02
37648;BME280;23490;53.656;10.076;2022-08-23T09:52:34;55937.66;;;-145.95;39.32
37648;BME280;23490;53.656;10.076;2022-08-23T09:55:08;55911.16;;;-145.95;40.19
37648;BME280;23490;53.656;10.076;2022-08-23T09:57:34;55915.25;;;-145.95;40.30
37648;BME280;23490;53.656;10.076;2022-08-23T10:02:41;55886.69;;;-145.95;38.96
37648;BME280;23490;53.656;10.076;2022-08-23T10:05:27;55900.97;;;-145.95;38.80
37648;BME280;23490;53.656;10.076;2022-08-23T10:07:55;55890.78;;;-145.95;38.31
37648;BME280;23490;53.656;10.076;2022-08-23T10:10:41;55915.25;;;-145.95;38.87
37648;BME280;23490;53.656;10.076;2022-08-23T10:13:13;55894.84;;;-145.95;40.39
37648;BME280;23490;53.656;10.076;2022-08-23T10:15:49;55935.63;;;-145.95;39.19
37648;BME280;23490;53.656;10.076;2022-08-23T10:18:31;55882.63;;;-145.95;39.46
37648;BME280;23490;53.656;10.076;2022-08-23T10:26:33;55892.81;;;-145.95;38.20
37648;BME280;23490;53.656;10.076;2022-08-23T10:32:00;55903.00;;;-145.95;37.34
37648;BME280;23490;53.656;10.076;2022-08-23T10:34:44;55894.84;;;-145.95;37.84
37648;BME280;23490;53.656;10.076;2022-08-23T10:39:55;55927.47;;;-145.95;37.42
37648;BME280;23490;53.656;10.076;2022-08-23T10:43:19;55884.66;;;-145.95;36.68
37648;BME280;23490;53.656;10.076;2022-08-23T10:45:36;55915.25;;;-145.95;36.09
37648;BME280;23490;53.656;10.076;2022-08-23T10:51:22;55927.47;;;-145.95;37.11
37648;BME280;23490;53.656;10.076;2022-08-23T10:54:14;55937.66;;;-145.95;36.88
37648;BME280;23490;53.656;10.076;2022-08-23T10:56:43;55943.78;;;-145.95;36.01
37648;BME280;23490;53.656;10.076;2022-08-23T10:59:12;55907.09;;;-145.95;36.19
37648;BME280;23490;53.656;10.076;2022-08-23T11:07:32;55907.09;;;-145.95;36.15
37648;BME280;23490;53.656;10.076;2022-08-23T11:10:12;55927.47;;;-145.95;36.06
37648;BME280;23490;53.656;10.076;2022-08-23T11:12:56;55929.50;;;-145.95;34.48
37648;BME280;23490;53.656;10.076;2022-08-23T11:21:07;55915.25;;;-145.95;34.19
37648;BME280;23490;53.656;10.076;2022-08-23T11:25:59;55911.16;;;-145.95;35.03
37648;BME280;23490;53.656;10.076;2022-08-23T11:33:44;55898.94;;;-145.95;33.39
37648;BME280;23490;53.656;10.076;2022-08-23T11:36:22;55943.78;;;-145.95;34.19
37648;BME280;23490;53.656;10.076;2022-08-23T11:41:33;55911.16;;;-145.95;32.49
37648;BME280;23490;53.656;10.076;2022-08-23T11:46:35;55911.16;;;-145.95;33.85
37648;BME280;23490;53.656;10.076;2022-08-23T11:49:22;55896.88;;;-145.95;33.13
37648;BME280;23490;53.656;10.076;2022-08-23T11:54:59;55919.31;;;-145.95;33.07
37648;BME280;23490;53.656;10.076;2022-08-23T12:03:33;55931.56;;;-145.95;32.76
37648;BME280;23490;53.656;10.076;2022-08-23T12:06:09;55886.69;;;-145.95;33.21
37648;BME280;23490;53.656;10.076;2022-08-23T12:08:49;55864.25;;;-145.95;32.73
37648;BME280;23490;53.656;10.076;2022-08-23T12:11:17;55927.47;;;-145.95;33.14
37648;BME280;23490;53.656;10.076;2022-08-23T12:13:52;55943.78;;;-145.95;32.39
37648;BME280;23490;53.656;10.076;2022-08-23T12:18:50;55935.63;;;-145.95;31.91
37648;BME280;23490;53.656;10.076;2022-08-23T12:21:41;55888.72;;;-145.95;31.66
37648;BME280;23490;53.656;10.076;2022-08-23T12:26:57;55915.25;;;-145.95;31.51
37648;BME280;23490;53.656;10.076;2022-08-23T12:32:18;55907.09;;;-145.95;31.50
37648;BME280;23490;53.656;10.076;2022-08-23T12:37:41;55937.66;;;-145.95;31.24
37648;BME280;23490;53.656;10.076;2022-08-23T12:40:31;55903.00;;;-145.95;29.90
37648;BME280;23490;53.656;10.076;2022-08-23T12:43:09;55931.56;;;-145.95;30.62
37648;BME280;23490;53.656;10.076;2022-08-23T12:45:42;55907.09;;;-145.95;30.50
37648;BME280;23490;53.656;10.076;2022-08-23T12:48:11;55911.16;;;-145.95;30.81
37648;BME280;23490;53.656;10.076;2022-08-23T12:50:37;55921.34;;;-145.95;30.91
37648;BME280;23490;53.656;10.076;2022-08-23T12:53:12;55915.25;;;-145.95;30.18
37648;BME280;23490;53.656;10.076;2022-08-23T12:55:42;55870.38;;;-145.95;30.57
37648;BME280;23490;53.656;10.076;2022-08-23T12:58:09;55919.31;;;-145.95;30.79
37648;BME280;23490;53.656;10.076;2022-08-23T13:00:39;55907.09;;;-145.95;30.36
37648;BME280;23490;53.656;10.076;2022-08-23T13:03:17;55886.69;;;-145.95;31.10
37648;BME280;23490;53.656;10.076;2022-08-23T13:05:53;55923.41;;;-145.95;30.00
37648;BME280;23490;53.656;10.076;2022-08-23T13:08:23;55837.75;;;-145.95;30.99
37648;BME280;23490;53.656;10.076;2022-08-23T13:10:50;55911.16;;;-145.95;29.73
37648;BME280;23490;53.656;10.076;2022-08-23T13:13:19;55882.63;;;-145.95;31.59
37648;BME280;23490;53.656;10.076;2022-08-23T13:15:58;55886.69;;;-145.95;32.02
37648;BME280;23490;53.656;10.076;2022-08-23T13:21:26;55919.31;;;-145.95;30.91
37648;BME280;23490;53.656;10.076;2022-08-23T13:23:58;55878.53;;;-145.95;30.88
37648;BME280;23490;53.656;10.076;2022-08-23T13:31:53;55890.78;;;-145.95;28.93
37648;BME280;23490;53.656;10.076;2022-08-23T13:34:32;55833.66;;;-145.95;29.20
37648;BME280;23490;53.656;10.076;2022-08-23T13:37:03;55837.75;;;-145.95;28.96
37648;BME280;23490;53.656;10.076;2022-08-23T13:39:30;55825.53;;;-145.95;28.77
37648;BME280;23490;53.656;10.076;2022-08-23T13:41:56;55831.63;;;-145.95;30.16
37648;BME280;23490;53.656;10.076;2022-08-23T13:44:22;55845.91;;;-145.95;29.63
37648;BME280;23490;53.656;10.076;2022-08-23T13:46:49;55845.91;;;-145.95;30.41
37648;BME280;23490;53.656;10.076;2022-08-23T13:49:25;55821.44;;;-145.95;29.85
37648;BME280;23490;53.656;10.076;2022-08-23T13:54:24;55796.97;;;-145.95;29.93
37648;BME280;23490;53.656;10.076;2022-08-23T13:56:55;55825.53;;;-145.95;29.28
37648;BME280;23490;53.656;10.076;2022-08-23T13:59:30;55817.34;;;-145.95;30.23
37648;BME280;23490;53.656;10.076;2022-08-23T14:01:58;55805.13;;;-145.95;29.81
37648;BME280;23490;53.656;10.076;2022-08-23T14:04:24;55850.00;;;-145.95;29.31
37648;BME280;23490;53.656;10.076;2022-08-23T14:06:49;55823.47;;;-145.95;29.79
37648;BME280;23490;53.656;10.076;2022-08-23T14:09:15;55850.00;;;-145.95;29.48
37648;BME280;23490;53.656;10.076;2022-08-23T14:11:41;55821.44;;;-145.95;30.86